createdAt,value
2018-11-02T00:02:31.736Z,59.30
2018-11-02T00:05:17.245Z,59.40
2018-11-02T00:08:18.669Z,59.30
2018-11-02T00:11:23.766Z,59.20
2018-11-02T00:14:09.567Z,59.40
2018-11-02T00:16:55.483Z,59.40
2018-11-02T00:19:42.893Z,59.30
2018-11-02T00:22:28.542Z,59.40
2018-11-02T00:25:14.090Z,59.30
2018-11-02T00:28:00.029Z,59.30
2018-11-02T00:30:45.743Z,59.30
2018-11-02T00:33:31.625Z,59.20
2018-11-02T00:36:17.191Z,59.20
2018-11-02T00:39:02.932Z,59.20
2018-11-02T00:41:49.147Z,59.30
2018-11-02T00:44:35.236Z,59.40
2018-11-02T00:47:26.855Z,59.40
2018-11-02T00:50:14.163Z,59.30
2018-11-02T00:53:01.246Z,59.30
2018-11-02T00:55:47.522Z,59.50
2018-11-02T00:58:33.665Z,59.50
2018-11-02T01:01:19.289Z,59.50
2018-11-02T01:04:05.258Z,59.60
2018-11-02T01:06:52.031Z,59.40
2018-11-02T01:09:38.577Z,59.50
2018-11-02T01:12:25.300Z,59.50
2018-11-02T01:15:12.133Z,59.40
2018-11-02T01:17:59.668Z,59.30
2018-11-02T01:20:45.658Z,59.40
2018-11-02T01:23:31.243Z,59.30
2018-11-02T01:26:17.048Z,59.40
2018-11-02T01:29:03.039Z,59.40
2018-11-02T01:31:52.855Z,59.40
2018-11-02T01:34:39.335Z,59.30
2018-11-02T01:37:35.431Z,59.20
2018-11-02T01:40:34.186Z,59.30
2018-11-02T01:43:29.291Z,59.40
2018-11-02T01:49:25.482Z,59.30
2018-11-02T01:52:11.188Z,59.40
2018-11-02T01:54:57.965Z,59.30
2018-11-02T01:57:44.129Z,59.30
2018-11-02T02:00:29.898Z,59.10
2018-11-02T02:03:15.495Z,59.20
2018-11-02T02:06:01.547Z,59.40
2018-11-02T02:08:47.149Z,59.40
2018-11-02T02:11:32.985Z,59.40
2018-11-02T02:14:18.459Z,59.50
2018-11-02T02:17:04.489Z,59.60
2018-11-02T02:19:51.254Z,59.70
2018-11-02T02:22:36.854Z,59.70
2018-11-02T02:25:23.106Z,59.70
2018-11-02T02:28:08.687Z,59.70
2018-11-02T02:30:54.463Z,59.70
2018-11-02T02:33:40.259Z,59.70
2018-11-02T02:36:26.178Z,59.70
2018-11-02T02:39:12.901Z,59.80
2018-11-02T02:41:58.724Z,59.80
2018-11-02T02:44:44.569Z,59.90
2018-11-02T02:47:41.656Z,59.90
2018-11-02T02:50:44.772Z,61.40
2018-11-02T02:53:36.789Z,60.20
2018-11-02T02:56:30.081Z,60.10
2018-11-02T02:59:23.870Z,60.10
2018-11-02T03:02:21.557Z,60.10
2018-11-02T03:11:11.034Z,60.10
2018-11-02T03:14:10.359Z,60.10
2018-11-02T03:17:08.303Z,60.10
2018-11-02T03:20:02.247Z,60.10
2018-11-02T03:25:54.321Z,60.10
2018-11-02T03:28:54.938Z,60.10
2018-11-02T03:31:51.076Z,60.10
2018-11-02T03:34:49.602Z,60.10
2018-11-02T03:37:34.980Z,60.20
2018-11-02T03:40:21.233Z,60.10
2018-11-02T03:43:06.946Z,59.80
2018-11-02T03:46:01.626Z,60.00
2018-11-02T03:48:47.602Z,58.90
2018-11-02T03:51:49.131Z,56.50
2018-11-02T03:54:36.680Z,54.90
2018-11-02T04:02:00.036Z,52.10
2018-11-02T04:04:49.607Z,50.50
2018-11-02T04:14:03.654Z,48.40
2018-11-02T04:23:05.406Z,51.30
2018-11-02T04:29:42.483Z,52.10
2018-11-02T04:32:49.531Z,52.50
2018-11-02T06:13:23.445Z,58.20
2018-11-02T06:16:41.302Z,58.30
2018-11-02T06:19:56.484Z,58.40
2018-11-02T06:23:01.581Z,58.70
2018-11-02T06:26:25.821Z,58.60
2018-11-02T06:32:59.570Z,58.50
2018-11-02T06:36:03.295Z,58.30
2018-11-02T06:39:00.675Z,58.20
2018-11-02T06:41:50.274Z,58.10
2018-11-02T06:44:42.421Z,57.80
2018-11-02T06:47:52.710Z,57.70
2018-11-02T06:51:03.907Z,57.60
2018-11-02T06:54:09.772Z,57.50
2018-11-02T06:57:06.858Z,57.40
2018-11-02T07:00:11.635Z,57.30
2018-11-02T07:03:06.760Z,57.40
2018-11-02T07:06:46.522Z,57.10
2018-11-02T07:09:41.159Z,57.00
2018-11-02T07:12:51.869Z,57.00
2018-11-02T07:15:43.562Z,57.00
2018-11-02T07:18:57.453Z,56.80
2018-11-02T07:21:54.928Z,56.80
2018-11-02T07:24:49.873Z,57.00
2018-11-02T07:28:13.572Z,57.00
2018-11-02T07:31:58.859Z,56.90
2018-11-02T07:35:02.147Z,56.90
2018-11-02T07:42:08.943Z,56.90
2018-11-02T07:45:21.876Z,56.80
2018-11-02T07:52:32.390Z,56.60
2018-11-02T08:02:33.660Z,56.60
2018-11-02T08:02:54.410Z,56.50
2018-11-02T08:06:01.734Z,56.40
2018-11-02T08:12:36.429Z,56.00
2018-11-02T08:15:33.148Z,56.00
2018-11-02T08:18:28.112Z,56.10
2018-11-02T08:21:42.694Z,56.00
2018-11-02T08:24:38.776Z,56.00
2018-11-02T08:27:35.361Z,56.00
2018-11-02T08:30:39.939Z,56.10
2018-11-02T08:33:37.375Z,56.10
2018-11-02T08:36:34.483Z,56.10
2018-11-02T08:39:37.033Z,56.20
2018-11-02T08:42:42.126Z,56.10
2018-11-02T08:46:19.694Z,56.30
2018-11-02T08:49:03.964Z,56.10
2018-11-02T08:56:10.133Z,56.10
2018-11-02T08:59:04.595Z,56.00
2018-11-02T09:01:58.626Z,56.10
2018-11-02T09:05:16.588Z,56.30
2018-11-02T09:07:58.087Z,55.30
2018-11-02T09:11:22.456Z,53.40
2018-11-02T09:15:18.524Z,52.30
2018-11-02T09:25:38.194Z,50.20
2018-11-02T10:11:25.623Z,49.20
2018-11-02T10:25:32.936Z,49.60
2018-11-02T10:28:27.552Z,49.60
2018-11-02T10:31:47.815Z,49.80
2018-11-02T10:34:53.850Z,49.70
2018-11-02T10:38:08.220Z,49.60
2018-11-02T10:41:31.274Z,49.70
2018-11-02T10:44:38.762Z,49.40
2018-11-02T10:47:45.615Z,49.70
2018-11-02T10:50:54.232Z,49.60
2018-11-02T10:53:59.465Z,49.20
2018-11-02T11:00:41.077Z,49.10
2018-11-02T11:10:21.388Z,48.60
2018-11-02T11:13:27.358Z,48.50
2018-11-02T11:24:09.995Z,48.80
2018-11-02T11:27:08.363Z,48.70
2018-11-02T11:30:01.202Z,48.70
2018-11-02T11:33:29.587Z,47.90
2018-11-02T11:40:21.340Z,46.40
2018-11-02T11:43:12.834Z,45.80
2018-11-02T11:46:26.117Z,45.30
2018-11-02T11:49:18.360Z,44.90
2018-11-02T11:52:21.627Z,44.70
2018-11-02T12:02:39.702Z,44.10
2018-11-02T12:05:50.292Z,43.80
2018-11-02T12:09:17.913Z,43.80
2018-11-02T12:18:55.107Z,46.80
2018-11-02T12:21:52.226Z,48.40
2018-11-02T12:31:47.287Z,51.70
2018-11-02T12:34:38.699Z,52.50
2018-11-02T12:37:30.561Z,53.00
2018-11-02T12:40:28.067Z,53.30
2018-11-02T12:43:23.698Z,53.60
2018-11-02T12:46:15.549Z,53.90
2018-11-02T12:49:11.807Z,54.10
